Wetterdaten: Woche 18.08.03 - 24.08.03 (KW34)
Datum Zeit Temperatur Luftfeuchte Luftdruck Regenmenge Wind Richtung Taupunkt Windchill
18.08.2003 00:00 18.8 C 92 % 1015.6 hPa 0.0 l/m 7.5 km/h (2 Bft) O-SO 17.5 C 18.8 C
18.08.2003 01:00 18.4 C 93 % 1015.8 hPa 0.0 l/m 2.4 km/h (1 Bft) O-SO 17.2 C 18.4 C
18.08.2003 02:00 18.0 C 95 % 1015.9 hPa 0.4 l/m 0.6 km/h (0 Bft) O-SO 17.2 C 18.0 C
18.08.2003 03:00 18.0 C 96 % 1015.3 hPa 0.0 l/m 0.3 km/h (0 Bft) O-SO 17.4 C 18.0 C
18.08.2003 04:00 17.7 C 95 % 1015.4 hPa 0.0 l/m 2.2 km/h (1 Bft) O-SO 16.9 C 17.7 C
18.08.2003 05:00 17.5 C 96 % 1015.9 hPa 0.0 l/m 1.0 km/h (0 Bft) O-SO 16.9 C 17.5 C
18.08.2003 06:00 17.4 C 95 % 1015.9 hPa 0.0 l/m 1.8 km/h (1 Bft) O-SO 16.5 C 17.4 C
18.08.2003 07:00 17.7 C 98 % 1016.1 hPa 0.0 l/m 0.3 km/h (0 Bft) O-SO 17.3 C 17.7 C
18.08.2003 08:00 18.4 C 100 % 1016.9 hPa 0.0 l/m 0.6 km/h (0 Bft) S-SO 18.4 C 18.4 C
18.08.2003 09:00 19.9 C 94 % 1017.3 hPa 0.0 l/m 3.9 km/h (1 Bft) SO 18.9 C 19.9 C
18.08.2003 10:00 21.1 C 78 % 1018.0 hPa 0.0 l/m 2.8 km/h (1 Bft) W-NW 17.1 C 21.1 C
18.08.2003 11:00 22.1 C 64 % 1018.0 hPa 0.0 l/m 6.6 km/h (2 Bft) W-NW 15.0 C 22.1 C
18.08.2003 12:00 24.2 C 55 % 1017.5 hPa 0.0 l/m 7.8 km/h (2 Bft) W-NW 14.6 C 24.2 C
18.08.2003 13:00 26.0 C 46 % 1016.7 hPa 0.0 l/m 5.7 km/h (1 Bft) W-NW 13.5 C 26.0 C
18.08.2003 14:00 24.6 C 59 % 1016.9 hPa 1.9 l/m 5.2 km/h (1 Bft) W-NW 15.5 C 24.6 C
18.08.2003 15:00 20.7 C 87 % 1017.6 hPa 1.5 l/m 20.4 km/h (4 Bft) O-SO 18.4 C 20.7 C
18.08.2003 16:00 19.0 C 89 % 1018.1 hPa 2.3 l/m 10.5 km/h (2 Bft) O-SO 17.2 C 19.0 C
18.08.2003 17:00 19.8 C 91 % 1018.0 hPa 0.0 l/m 3.4 km/h (1 Bft) SO 18.2 C 19.8 C
18.08.2003 18:00 21.1 C 76 % 1018.0 hPa 0.0 l/m 2.6 km/h (1 Bft) SO 16.7 C 21.1 C
18.08.2003 19:00 19.8 C 84 % 1018.0 hPa 0.0 l/m 0.1 km/h (0 Bft) N 16.9 C 19.8 C
18.08.2003 20:00 18.9 C 92 % 1018.1 hPa 0.0 l/m 0.6 km/h (0 Bft) O-SO 17.5 C 18.9 C
18.08.2003 21:00 18.3 C 97 % 1019.0 hPa 0.0 l/m 0.8 km/h (0 Bft) O-SO 17.8 C 18.3 C
18.08.2003 22:00 18.2 C 93 % 1019.0 hPa 0.0 l/m 1.3 km/h (1 Bft) O-SO 17.1 C 18.2 C
18.08.2003 23:00 18.1 C 96 % 1019.0 hPa 0.0 l/m 0.3 km/h (0 Bft) O-SO 17.4 C 18.1 C
19.08.2003 00:00 17.8 C 94 % 1019.0 hPa 0.0 l/m 0.3 km/h (0 Bft) O-SO 16.9 C 17.8 C
19.08.2003 01:00 17.5 C 94 % 1019.2 hPa 0.0 l/m 1.7 km/h (1 Bft) O-SO 16.5 C 17.5 C
19.08.2003 02:00 17.0 C 94 % 1020.0 hPa 0.0 l/m 0.0 km/h (0 Bft) N 16.0 C 17.0 C
19.08.2003 03:00 16.9 C 95 % 1020.0 hPa 0.0 l/m 0.7 km/h (0 Bft) O-SO 16.0 C 16.9 C
19.08.2003 04:00 17.1 C 95 % 1020.0 hPa 0.0 l/m 0.0 km/h (0 Bft) N 16.3 C 17.1 C
19.08.2003 05:00 16.9 C 95 % 1020.0 hPa 0.0 l/m 0.6 km/h (0 Bft) O-SO 16.1 C 16.9 C
19.08.2003 06:00 16.4 C 98 % 1020.0 hPa 0.0 l/m 0.0 km/h (0 Bft) N 16.0 C 16.4 C
19.08.2003 07:00 17.2 C 98 % 1020.9 hPa 0.0 l/m 0.4 km/h (0 Bft) O-SO 16.8 C 17.2 C
19.08.2003 08:00 17.6 C 99 % 1021.1 hPa 0.0 l/m 0.6 km/h (0 Bft) SO 17.5 C 17.6 C
19.08.2003 09:00 19.2 C 90 % 1021.1 hPa 0.0 l/m 2.5 km/h (1 Bft) SO 17.4 C 19.2 C
19.08.2003 10:00 20.7 C 75 % 1020.5 hPa 0.0 l/m 1.3 km/h (1 Bft) SO 16.0 C 20.7 C
19.08.2003 11:00 23.2 C 62 % 1020.0 hPa 0.0 l/m 3.1 km/h (1 Bft) O-SO 15.5 C 23.2 C
19.08.2003 12:00 24.7 C 53 % 1019.9 hPa 0.0 l/m 2.1 km/h (1 Bft) O-SO 14.4 C 24.7 C
19.08.2003 13:00 26.2 C 38 % 1019.0 hPa 0.0 l/m 12.3 km/h (3 Bft) NW 10.5 C 26.2 C
19.08.2003 14:00 27.5 C 31 % 1019.0 hPa 0.0 l/m 15.0 km/h (3 Bft) W-NW 8.8 C 27.5 C
19.08.2003 15:00 28.3 C 30 % 1018.8 hPa 0.0 l/m 9.3 km/h (2 Bft) NW 9.0 C 28.3 C
19.08.2003 16:00 28.5 C 30 % 1018.0 hPa 0.0 l/m 7.5 km/h (2 Bft) W-NW 9.0 C 28.5 C
19.08.2003 17:00 29.0 C 30 % 1018.0 hPa 0.0 l/m 7.5 km/h (2 Bft) W-NW 9.5 C 29.0 C
19.08.2003 18:00 28.3 C 31 % 1018.0 hPa 0.0 l/m 6.3 km/h (2 Bft) W-NW 9.7 C 28.3 C
19.08.2003 19:00 28.1 C 31 % 1017.0 hPa 0.0 l/m 4.9 km/h (1 Bft) W-NW 9.4 C 28.1 C
19.08.2003 20:00 24.8 C 42 % 1017.2 hPa 0.0 l/m 2.6 km/h (1 Bft) SO 10.7 C 24.8 C
19.08.2003 21:00 21.7 C 58 % 1018.0 hPa 0.0 l/m 6.2 km/h (2 Bft) O-SO 13.1 C 21.7 C
19.08.2003 22:00 19.5 C 69 % 1018.0 hPa 0.0 l/m 4.3 km/h (1 Bft) O-SO 13.6 C 19.5 C
19.08.2003 23:00 18.0 C 78 % 1018.8 hPa 0.0 l/m 0.7 km/h (0 Bft) O-SO 14.1 C 18.0 C
20.08.2003 00:00 17.2 C 78 % 1019.0 hPa 0.0 l/m 2.8 km/h (1 Bft) O-SO 13.4 C 17.2 C
20.08.2003 01:00 16.4 C 82 % 1018.8 hPa 0.0 l/m 0.3 km/h (0 Bft) O-SO 13.3 C 16.4 C
20.08.2003 02:00 15.9 C 83 % 1018.3 hPa 0.0 l/m 1.7 km/h (1 Bft) O-SO 13.0 C 15.9 C
20.08.2003 03:00 15.4 C 87 % 1018.0 hPa 0.0 l/m 0.3 km/h (0 Bft) O-SO 13.3 C 15.4 C
20.08.2003 04:00 14.9 C 88 % 1018.0 hPa 0.0 l/m 1.6 km/h (1 Bft) O-SO 13.0 C 14.9 C
20.08.2003 05:00 14.3 C 91 % 1018.0 hPa 0.0 l/m 1.4 km/h (1 Bft) O-SO 12.8 C 14.3 C
20.08.2003 06:00 14.1 C 93 % 1017.7 hPa 0.0 l/m 2.8 km/h (1 Bft) O-SO 13.0 C 14.1 C
20.08.2003 07:00 15.1 C 93 % 1017.5 hPa 0.0 l/m 0.5 km/h (0 Bft) O-SO 14.1 C 15.1 C
20.08.2003 08:00 16.6 C 87 % 1018.0 hPa 0.0 l/m 0.2 km/h (0 Bft) O-SO 14.4 C 16.6 C
20.08.2003 09:00 18.4 C 75 % 1018.0 hPa 0.0 l/m 0.1 km/h (0 Bft) N 13.9 C 18.4 C
20.08.2003 10:00 20.5 C 66 % 1017.2 hPa 0.0 l/m 0.4 km/h (0 Bft) NW 13.9 C 20.5 C
20.08.2003 11:00 22.9 C 56 % 1017.3 hPa 0.0 l/m 0.7 km/h (0 Bft) W-NW 13.6 C 22.9 C
20.08.2003 12:00 25.5 C 46 % 1016.9 hPa 0.0 l/m 1.2 km/h (1 Bft) W-NW 13.1 C 25.5 C
20.08.2003 13:00 27.3 C 41 % 1016.9 hPa 0.0 l/m 11.5 km/h (2 Bft) W-NW 12.7 C 27.3 C
20.08.2003 14:00 27.4 C 39 % 1015.9 hPa 0.0 l/m 26.2 km/h (4 Bft) W-NW 12.2 C 27.4 C
20.08.2003 15:00 26.0 C 43 % 1015.9 hPa 0.0 l/m 16.2 km/h (3 Bft) W-NW 12.5 C 26.0 C
20.08.2003 16:00 26.0 C 45 % 1015.9 hPa 0.0 l/m 9.1 km/h (2 Bft) W-NW 13.0 C 26.0 C
20.08.2003 17:00 27.3 C 38 % 1015.9 hPa 0.0 l/m 11.4 km/h (2 Bft) W-NW 11.7 C 27.3 C
20.08.2003 18:00 26.6 C 38 % 1015.7 hPa 0.0 l/m 6.7 km/h (2 Bft) W-NW 11.2 C 26.6 C
20.08.2003 19:00 24.5 C 44 % 1015.1 hPa 0.0 l/m 0.2 km/h (0 Bft) W-NW 11.5 C 24.5 C
20.08.2003 20:00 23.5 C 50 % 1015.9 hPa 0.0 l/m 1.9 km/h (1 Bft) W-NW 12.5 C 23.5 C
20.08.2003 21:00 21.8 C 63 % 1015.9 hPa 0.0 l/m 1.2 km/h (1 Bft) O-SO 14.4 C 21.8 C
20.08.2003 22:00 20.3 C 70 % 1015.9 hPa 0.0 l/m 3.3 km/h (1 Bft) O 14.7 C 20.3 C
20.08.2003 23:00 19.3 C 75 % 1015.9 hPa 0.0 l/m 0.3 km/h (0 Bft) O-SO 14.8 C 19.3 C
21.08.2003 00:00 18.7 C 79 % 1015.9 hPa 0.0 l/m 1.3 km/h (1 Bft) O-SO 15.0 C 18.7 C
21.08.2003 01:00 18.4 C 81 % 1015.9 hPa 0.0 l/m 0.6 km/h (0 Bft) O-SO 15.1 C 18.4 C
21.08.2003 02:00 18.9 C 78 % 1016.2 hPa 0.0 l/m 7.7 km/h (2 Bft) O-SO 15.1 C 18.9 C
21.08.2003 03:00 19.2 C 74 % 1015.9 hPa 0.0 l/m 1.1 km/h (0 Bft) O 14.4 C 19.2 C
21.08.2003 04:00 18.8 C 72 % 1015.9 hPa 0.0 l/m 5.8 km/h (2 Bft) O-SO 13.5 C 18.8 C
21.08.2003 05:00 18.1 C 74 % 1015.9 hPa 0.0 l/m 4.6 km/h (1 Bft) O-SO 13.3 C 18.1 C
21.08.2003 06:00 17.8 C 77 % 1015.9 hPa 0.0 l/m 4.2 km/h (1 Bft) O-SO 13.7 C 17.8 C
21.08.2003 07:00 17.9 C 80 % 1015.9 hPa 0.0 l/m 1.4 km/h (1 Bft) SO 14.4 C 17.9 C
21.08.2003 08:00 18.5 C 78 % 1015.9 hPa 0.0 l/m 1.9 km/h (1 Bft) O-SO 14.6 C 18.5 C
21.08.2003 09:00 19.2 C 75 % 1016.1 hPa 0.0 l/m 1.1 km/h (1 Bft) O-SO 14.5 C 19.2 C
21.08.2003 10:00 21.8 C 64 % 1016.8 hPa 0.0 l/m 1.7 km/h (1 Bft) O-SO 14.7 C 21.8 C
21.08.2003 11:00 23.9 C 54 % 1016.7 hPa 0.0 l/m 4.1 km/h (1 Bft) O-SO 14.1 C 23.9 C
21.08.2003 12:00 25.7 C 44 % 1015.9 hPa 0.0 l/m 12.0 km/h (2 Bft) W-NW 12.3 C 25.7 C
21.08.2003 13:00 25.7 C 46 % 1015.5 hPa 0.0 l/m 8.9 km/h (2 Bft) W-NW 13.3 C 25.7 C
21.08.2003 14:00 27.1 C 44 % 1014.8 hPa 0.0 l/m 1.8 km/h (1 Bft) W-NW 13.7 C 27.1 C
21.08.2003 15:00 28.1 C 39 % 1014.5 hPa 0.0 l/m 2.2 km/h (1 Bft) NW 12.7 C 28.1 C
21.08.2003 16:00 29.2 C 32 % 1013.8 hPa 0.0 l/m 7.7 km/h (2 Bft) W-NW 10.7 C 29.2 C
21.08.2003 17:00 28.9 C 35 % 1013.8 hPa 0.0 l/m 7.5 km/h (2 Bft) W-NW 11.8 C 28.9 C
21.08.2003 18:00 27.9 C 37 % 1013.8 hPa 0.0 l/m 13.1 km/h (3 Bft) W-NW 12.0 C 27.9 C
21.08.2003 19:00 26.4 C 42 % 1014.7 hPa 0.0 l/m 14.7 km/h (3 Bft) W-NW 12.4 C 26.4 C
21.08.2003 20:00 23.7 C 50 % 1014.8 hPa 0.0 l/m 3.5 km/h (1 Bft) W-NW 12.6 C 23.7 C
21.08.2003 21:00 22.4 C 58 % 1015.8 hPa 0.0 l/m 0.4 km/h (0 Bft) O-SO 13.6 C 22.4 C
21.08.2003 22:00 20.6 C 66 % 1015.9 hPa 0.0 l/m 5.8 km/h (1 Bft) O-SO 14.1 C 20.6 C
21.08.2003 23:00 19.3 C 72 % 1015.9 hPa 0.0 l/m 8.4 km/h (2 Bft) O-SO 14.1 C 19.3 C
22.08.2003 00:00 18.0 C 79 % 1015.9 hPa 0.0 l/m 0.9 km/h (0 Bft) O-SO 14.3 C 18.0 C
22.08.2003 01:00 17.0 C 84 % 1015.9 hPa 0.0 l/m 2.1 km/h (1 Bft) O-SO 14.3 C 17.0 C
22.08.2003 02:00 16.4 C 86 % 1015.9 hPa 0.0 l/m 0.7 km/h (0 Bft) O-SO 14.0 C 16.4 C
22.08.2003 03:00 15.8 C 88 % 1016.2 hPa 0.0 l/m 0.2 km/h (0 Bft) O-SO 13.8 C 15.8 C
22.08.2003 04:00 15.2 C 90 % 1016.9 hPa 0.0 l/m 0.0 km/h (0 Bft) N 13.6 C 15.2 C
22.08.2003 05:00 14.8 C 92 % 1016.9 hPa 0.0 l/m 0.2 km/h (0 Bft) O-SO 13.6 C 14.8 C
22.08.2003 06:00 14.4 C 93 % 1017.0 hPa 0.0 l/m 0.0 km/h (0 Bft) N 13.3 C 14.4 C
22.08.2003 07:00 15.5 C 94 % 1018.0 hPa 0.0 l/m 0.5 km/h (0 Bft) O-SO 14.6 C 15.5 C
22.08.2003 08:00 17.3 C 87 % 1018.0 hPa 0.0 l/m 0.1 km/h (0 Bft) W-NW 15.1 C 17.3 C
22.08.2003 09:00 18.2 C 80 % 1018.0 hPa 0.0 l/m 0.3 km/h (0 Bft) W-NW 14.6 C 18.2 C
22.08.2003 10:00 20.3 C 68 % 1018.0 hPa 0.0 l/m 0.3 km/h (0 Bft) O-SO 14.3 C 20.3 C
22.08.2003 11:00 22.9 C 56 % 1018.0 hPa 0.0 l/m 0.3 km/h (0 Bft) N 13.7 C 22.9 C
22.08.2003 12:00 25.6 C 39 % 1018.0 hPa 0.0 l/m 6.6 km/h (2 Bft) W-NW 10.5 C 25.6 C
22.08.2003 13:00 27.3 C 33 % 1017.6 hPa 0.0 l/m 6.1 km/h (2 Bft) NW 9.5 C 27.3 C
22.08.2003 14:00 28.2 C 31 % 1016.9 hPa 0.0 l/m 16.2 km/h (3 Bft) W-NW 9.5 C 28.2 C
22.08.2003 15:00 28.9 C 30 % 1016.9 hPa 0.0 l/m 14.3 km/h (3 Bft) W-NW 9.7 C 28.9 C
22.08.2003 16:00 29.5 C 29 % 1016.5 hPa 0.0 l/m 16.3 km/h (3 Bft) W-NW 9.6 C 29.5 C
22.08.2003 17:00 29.5 C 29 % 1016.2 hPa 0.0 l/m 11.9 km/h (2 Bft) W-NW 9.7 C 29.5 C
22.08.2003 18:00 28.8 C 27 % 1015.9 hPa 0.0 l/m 13.6 km/h (3 Bft) W-NW 7.8 C 28.8 C
22.08.2003 19:00 27.5 C 28 % 1015.9 hPa 0.0 l/m 12.0 km/h (2 Bft) W-NW 7.1 C 27.5 C
22.08.2003 20:00 24.1 C 37 % 1016.3 hPa 0.0 l/m 3.5 km/h (1 Bft) O-SO 8.3 C 24.1 C
22.08.2003 21:00 21.4 C 49 % 1016.9 hPa 0.0 l/m 6.2 km/h (2 Bft) O-SO 10.2 C 21.4 C
22.08.2003 22:00 18.4 C 62 % 1017.3 hPa 0.0 l/m 0.0 km/h (0 Bft) N 11.0 C 18.4 C
22.08.2003 23:00 17.2 C 67 % 1018.0 hPa 0.0 l/m 0.6 km/h (0 Bft) O-SO 11.0 C 17.2 C
23.08.2003 00:00 16.2 C 71 % 1018.0 hPa 0.0 l/m 2.8 km/h (1 Bft) O-SO 10.8 C 16.2 C
23.08.2003 01:00 15.0 C 76 % 1018.0 hPa 0.0 l/m 0.0 km/h (0 Bft) N 10.8 C 15.0 C
23.08.2003 02:00 14.5 C 79 % 1018.0 hPa 0.0 l/m 2.0 km/h (1 Bft) O-SO 10.9 C 14.5 C
23.08.2003 03:00 14.1 C 80 % 1018.6 hPa 0.0 l/m 0.8 km/h (0 Bft) O-SO 10.7 C 14.1 C
23.08.2003 04:00 13.2 C 83 % 1018.0 hPa 0.0 l/m 0.2 km/h (0 Bft) O-SO 10.3 C 13.2 C
23.08.2003 05:00 12.8 C 85 % 1018.0 hPa 0.0 l/m 0.2 km/h (0 Bft) N 10.3 C 12.8 C
23.08.2003 06:00 12.2 C 87 % 1018.6 hPa 0.0 l/m 0.1 km/h (0 Bft) O-SO 10.0 C 12.2 C
23.08.2003 07:00 13.0 C 88 % 1019.0 hPa 0.0 l/m 0.0 km/h (0 Bft) N 11.0 C 13.0 C
23.08.2003 08:00 15.1 C 78 % 1019.0 hPa 0.0 l/m 0.0 km/h (0 Bft) N 11.3 C 15.1 C
23.08.2003 09:00 17.6 C 63 % 1019.0 hPa 0.0 l/m 0.2 km/h (0 Bft) NW 10.5 C 17.6 C
23.08.2003 10:00 20.3 C 51 % 1019.0 hPa 0.0 l/m 0.4 km/h (0 Bft) W-NW 9.8 C 20.3 C
23.08.2003 11:00 23.0 C 40 % 1018.6 hPa 0.0 l/m 0.2 km/h (0 Bft) N-NW 8.8 C 23.0 C
23.08.2003 12:00 25.9 C 35 % 1018.0 hPa 0.0 l/m 0.8 km/h (0 Bft) W-NW 9.3 C 25.9 C
23.08.2003 13:00 28.4 C 29 % 1017.0 hPa 0.0 l/m 4.9 km/h (1 Bft) W-NW 8.4 C 28.4 C
23.08.2003 14:00 29.9 C 26 % 1016.7 hPa 0.0 l/m 13.9 km/h (3 Bft) W-NW 8.3 C 29.9 C
23.08.2003 15:00 30.5 C 24 % 1015.9 hPa 0.0 l/m 19.7 km/h (3 Bft) W-NW 7.5 C 30.5 C
23.08.2003 16:00 30.8 C 20 % 1015.8 hPa 0.0 l/m 10.9 km/h (2 Bft) W-NW 5.4 C 30.8 C
23.08.2003 17:00 30.6 C 20 % 1015.7 hPa 0.0 l/m 21.9 km/h (4 Bft) W-NW 5.0 C 30.6 C
23.08.2003 18:00 29.7 C 20 % 1014.8 hPa 0.0 l/m 12.8 km/h (3 Bft) W-NW 4.3 C 29.7 C
23.08.2003 19:00 28.0 C 21 % 1014.8 hPa 0.0 l/m 7.3 km/h (2 Bft) W-NW 3.5 C 28.0 C
23.08.2003 20:00 24.7 C 30 % 1015.6 hPa 0.0 l/m 0.0 km/h (0 Bft) N 5.5 C 24.7 C
23.08.2003 21:00 22.5 C 40 % 1015.9 hPa 0.0 l/m 0.9 km/h (0 Bft) O-SO 8.3 C 22.5 C
23.08.2003 22:00 19.7 C 53 % 1016.6 hPa 0.0 l/m 1.0 km/h (0 Bft) O-SO 9.7 C 19.7 C
23.08.2003 23:00 18.0 C 60 % 1016.9 hPa 0.0 l/m 0.4 km/h (0 Bft) O-SO 10.1 C 18.0 C
24.08.2003 00:00 17.7 C 63 % 1016.9 hPa 0.0 l/m 1.5 km/h (1 Bft) O 10.5 C 17.7 C
24.08.2003 01:00 16.9 C 66 % 1016.9 hPa 0.0 l/m 0.0 km/h (0 Bft) N 10.6 C 16.9 C
24.08.2003 02:00 15.7 C 73 % 1016.9 hPa 0.0 l/m 0.2 km/h (0 Bft) O 10.8 C 15.7 C
24.08.2003 03:00 14.5 C 79 % 1016.9 hPa 0.0 l/m 0.0 km/h (0 Bft) N 10.9 C 14.5 C
24.08.2003 04:00 13.8 C 81 % 1016.9 hPa 0.0 l/m 0.0 km/h (0 Bft) O 10.6 C 13.8 C
24.08.2003 05:00 13.4 C 85 % 1016.0 hPa 0.0 l/m 1.2 km/h (1 Bft) O 10.9 C 13.4 C
24.08.2003 06:00 13.2 C 85 % 1015.9 hPa 0.0 l/m 0.7 km/h (0 Bft) O-SO 10.7 C 13.2 C
24.08.2003 07:00 13.7 C 85 % 1016.0 hPa 0.0 l/m 0.0 km/h (0 Bft) N 11.3 C 13.7 C
24.08.2003 08:00 15.8 C 78 % 1016.2 hPa 0.0 l/m 0.0 km/h (0 Bft) N 12.0 C 15.8 C
24.08.2003 09:00 18.3 C 69 % 1015.9 hPa 0.0 l/m 0.4 km/h (0 Bft) W-NW 12.6 C 18.3 C
24.08.2003 10:00 21.8 C 55 % 1015.9 hPa 0.0 l/m 1.7 km/h (1 Bft) O-SO 12.3 C 21.8 C
24.08.2003 11:00 24.8 C 46 % 1015.9 hPa 0.0 l/m 10.1 km/h (2 Bft) O-SO 12.3 C 24.8 C
24.08.2003 12:00 27.0 C 40 % 1014.9 hPa 0.0 l/m 7.7 km/h (2 Bft) O-SO 12.1 C 27.0 C
24.08.2003 13:00 28.9 C 34 % 1014.6 hPa 0.0 l/m 3.8 km/h (1 Bft) NO 11.2 C 28.9 C
24.08.2003 14:00 30.5 C 27 % 1013.8 hPa 0.0 l/m 3.4 km/h (1 Bft) O-SO 9.0 C 30.5 C
24.08.2003 15:00 31.3 C 22 % 1012.8 hPa 0.0 l/m 2.5 km/h (1 Bft) W-NW 7.1 C 31.3 C
24.08.2003 16:00 31.7 C 20 % 1012.8 hPa 0.0 l/m 5.2 km/h (1 Bft) W-NW 6.3 C 31.7 C
24.08.2003 17:00 31.3 C 21 % 1011.7 hPa 0.0 l/m 2.5 km/h (1 Bft) W-NW 6.4 C 31.3 C
24.08.2003 18:00 30.1 C 25 % 1011.7 hPa 0.0 l/m 3.1 km/h (1 Bft) W-NW 7.6 C 30.1 C
24.08.2003 19:00 27.6 C 31 % 1011.7 hPa 0.0 l/m 2.0 km/h (1 Bft) O-SO 8.9 C 27.6 C
24.08.2003 20:00 25.1 C 40 % 1011.7 hPa 0.0 l/m 5.5 km/h (1 Bft) O-SO 10.5 C 25.1 C
24.08.2003 21:00 22.9 C 48 % 1011.7 hPa 0.0 l/m 7.3 km/h (2 Bft) O-SO 11.4 C 22.9 C
24.08.2003 22:00 21.5 C 53 % 1011.7 hPa 0.0 l/m 3.1 km/h (1 Bft) O-SO 11.4 C 21.5 C
24.08.2003 23:00 20.1 C 59 % 1012.7 hPa 0.0 l/m 0.1 km/h (0 Bft) O 11.8 C 20.1 C
Min-Datum _ 23.08.03 23.08.03 24.08.03 - 18.08.03 - 23.08.03 23.08.03
_ Min-Zeit 06:24 16:06 17:04 - 00:00 - 19:39 06:24
Minimum _ 11.8 C 20 % 1011.7 hPa - 0.0 km/h (0 Bft) - 2.7 C 11.8 C
Max-Datum _ 24.08.03 18.08.03 19.08.03 18.08.03 23.08.03 - 18.08.03 24.08.03
_ Max-Zeit 16:30 02:03 07:09 15:00 17:24 - 14:45 16:30
Maximum _ 31.9 C 100 % 1021.1 hPa 2.3 l/m 38.4 km/h
W-NW (5 Bft)
- 20.0 C 31.9 C
Durchschnitt _ 21.3 C 64 % 1016.8 hPa #6.1 l/m 4.0 km/h (1 Bft) W-NW 12.6 C 21.3 C

Durchschnitt Minimum Temp.20.3 C
Durchschnitt Maximum Temp.22.3 C
© Kaiko 2003